Terminal Aerodrome Forecast
Issued by NWS Missoula, MT

Home | Current Version | Previous Version | Text Only | Print | Product List | Glossary On
Versions: 1 2 3 4 5 6 7 8 9 10 11 12 13 14 15
974
FTUS45 KMSO 232320
TAFGPI
TAF
KGPI 232320Z 2400/2424 17013G20KT P6SM FEW080
     FM240900 21015G25KT P6SM FEW080
     FM241400 22025G35KT P6SM SCT070
     FM242100 24020G30KT P6SM VCSH BKN070=

USA.gov is the U.S. government's official web portal to all federal, state and local government web resources and services.